createdAt,value
2019-02-21T00:01:02.153Z,5.10
2019-02-21T00:03:32.219Z,4.60
2019-02-21T00:06:01.842Z,5.20
2019-02-21T00:08:31.528Z,5.20
2019-02-21T00:13:30.241Z,5.30
2019-02-21T00:16:00.203Z,5.30
2019-02-21T00:18:30.179Z,5.20
2019-02-21T00:20:59.793Z,5.80
2019-02-21T00:26:01.689Z,5.10
2019-02-21T00:28:35.566Z,5.20
2019-02-21T00:31:05.247Z,5.20
2019-02-21T00:33:37.818Z,5.30
2019-02-21T00:41:18.189Z,5.40
2019-02-21T00:48:46.137Z,5.30
2019-02-21T00:51:16.963Z,5.30
2019-02-21T00:53:49.209Z,5.30
2019-02-21T00:56:19.246Z,5.30
2019-02-21T00:58:55.345Z,5.40
2019-02-21T01:01:25.062Z,5.40
2019-02-21T01:03:54.991Z,5.90
2019-02-21T01:06:24.830Z,5.60
2019-02-21T01:09:00.278Z,5.20
2019-02-21T01:11:29.853Z,5.60
2019-02-21T01:14:01.365Z,5.70
2019-02-21T01:16:30.938Z,5.70
2019-02-21T01:21:32.786Z,5.80
2019-02-21T01:24:11.116Z,5.80
2019-02-21T01:29:12.861Z,6.80
2019-02-21T01:31:42.505Z,5.90
2019-02-21T01:34:14.400Z,6.00
2019-02-21T01:36:44.262Z,6.00
2019-02-21T01:44:20.700Z,5.90
2019-02-21T01:46:50.283Z,5.90
2019-02-21T01:49:21.565Z,6.70
2019-02-21T01:51:51.392Z,6.00
2019-02-21T01:54:26.467Z,5.20
2019-02-21T01:56:56.022Z,6.10
2019-02-21T01:59:29.066Z,6.10
2019-02-21T02:06:59.569Z,6.20
2019-02-21T02:09:32.548Z,7.50
2019-02-21T02:14:37.709Z,6.50
2019-02-21T02:19:39.263Z,6.50
2019-02-21T02:22:09.125Z,7.40
2019-02-21T02:27:10.525Z,6.50
2019-02-21T02:34:48.209Z,6.60
2019-02-21T02:37:17.818Z,6.40
2019-02-21T02:39:48.102Z,5.90
2019-02-21T02:42:17.704Z,6.20
2019-02-21T02:47:24.882Z,6.20
2019-02-21T02:49:54.445Z,6.30
2019-02-21T02:52:24.332Z,6.30
2019-02-21T02:57:26.107Z,6.60
2019-02-21T03:00:04.827Z,6.70
2019-02-21T03:05:03.623Z,6.80
2019-02-21T03:10:09.605Z,6.90
2019-02-21T03:15:11.795Z,7.00
2019-02-21T03:20:14.120Z,6.90
2019-02-21T03:22:43.969Z,6.90
2019-02-21T03:27:46.590Z,6.90
2019-02-21T03:30:19.149Z,6.80
2019-02-21T03:32:49.340Z,6.90
2019-02-21T03:37:50.948Z,6.90
2019-02-21T03:42:54.829Z,6.90
2019-02-21T03:45:27.792Z,6.90
2019-02-21T03:47:57.939Z,6.80
2019-02-21T03:50:30.347Z,6.90
2019-02-21T03:55:34.632Z,6.70
2019-02-21T03:58:04.281Z,6.70
2019-02-21T04:00:37.043Z,5.80
2019-02-21T04:05:38.485Z,6.60
2019-02-21T04:10:40.727Z,6.40
2019-02-21T04:13:10.266Z,6.40
2019-02-21T04:18:11.433Z,6.30
2019-02-21T04:20:45.468Z,6.20
2019-02-21T04:23:15.344Z,6.20
2019-02-21T04:30:52.754Z,6.30
2019-02-21T04:33:22.303Z,6.30
2019-02-21T04:35:54.608Z,6.30
2019-02-21T04:38:24.389Z,6.40
2019-02-21T04:41:00.827Z,6.70
2019-02-21T04:43:30.459Z,6.30
2019-02-21T04:48:32.162Z,6.20
2019-02-21T04:51:04.911Z,5.70
2019-02-21T04:53:34.483Z,6.10
2019-02-21T04:56:09.796Z,6.10
2019-02-21T04:58:39.351Z,6.10
2019-02-21T05:01:20.056Z,6.10
2019-02-21T05:03:49.614Z,5.90
2019-02-21T05:08:48.114Z,5.90
2019-02-21T05:16:21.682Z,5.70
2019-02-21T05:28:58.498Z,5.40
2019-02-21T05:34:41.679Z,5.40
2019-02-21T05:37:27.482Z,5.40
2019-02-21T05:40:28.840Z,5.30
2019-02-21T05:43:20.726Z,5.40
2019-02-21T05:46:01.305Z,5.40
2019-02-21T05:49:03.026Z,4.40
2019-02-21T05:55:00.985Z,5.40
2019-02-21T05:57:58.350Z,5.40
2019-02-21T06:00:50.024Z,5.40
2019-02-21T06:03:47.654Z,5.50
2019-02-21T06:06:48.279Z,5.60
2019-02-21T06:09:26.383Z,5.60
2019-02-21T06:12:14.215Z,5.70
2019-02-21T06:15:19.091Z,5.70
2019-02-21T06:18:13.967Z,5.80
2019-02-21T06:23:53.358Z,5.80
2019-02-21T06:26:26.911Z,5.80
2019-02-21T06:29:04.883Z,6.70
2019-02-21T06:31:34.625Z,5.80
2019-02-21T06:34:06.141Z,5.90
2019-02-21T06:36:35.921Z,6.00
2019-02-21T06:39:09.452Z,6.00
2019-02-21T06:41:39.365Z,6.10
2019-02-21T06:49:18.199Z,7.10
2019-02-21T06:51:47.887Z,6.40
2019-02-21T06:54:17.894Z,6.50
2019-02-21T06:56:47.535Z,6.50
2019-02-21T06:59:42.464Z,6.50
2019-02-21T07:02:08.141Z,6.30
2019-02-21T07:04:37.857Z,6.70
2019-02-21T07:07:08.813Z,6.70
2019-02-21T07:09:38.466Z,6.80
2019-02-21T07:12:10.476Z,6.90
2019-02-21T07:17:14.451Z,7.00
2019-02-21T07:19:44.407Z,8.00
2019-02-21T07:22:17.719Z,8.10
2019-02-21T07:24:46.765Z,7.10
2019-02-21T07:27:16.606Z,7.30
2019-02-21T07:29:46.289Z,7.40
2019-02-21T07:32:15.893Z,7.40
2019-02-21T07:34:46.316Z,7.40
2019-02-21T07:37:18.861Z,7.10
2019-02-21T07:39:47.470Z,7.60
2019-02-21T07:42:17.371Z,7.60
2019-02-21T07:49:52.786Z,7.90
2019-02-21T07:52:22.463Z,7.90
2019-02-21T07:55:01.292Z,8.10
2019-02-21T07:59:52.454Z,8.20
2019-02-21T08:02:22.045Z,8.30
2019-02-21T08:04:52.225Z,8.30
2019-02-21T08:07:21.815Z,8.30
2019-02-21T08:10:00.348Z,8.40
2019-02-21T08:12:33.139Z,8.40
2019-02-21T08:15:02.751Z,8.50
2019-02-21T08:17:32.358Z,8.60
2019-02-21T08:20:08.487Z,9.00
2019-02-21T08:22:33.415Z,9.80
2019-02-21T08:25:06.894Z,9.90
2019-02-21T08:27:36.771Z,10.30
2019-02-21T08:30:18.821Z,10.30
2019-02-21T08:33:08.866Z,11.20
2019-02-21T08:35:40.705Z,12.00
2019-02-21T08:38:13.753Z,12.20
2019-02-21T08:40:43.485Z,12.10
2019-02-21T08:43:17.617Z,11.90
2019-02-21T08:45:49.929Z,12.00
2019-02-21T08:48:19.530Z,11.90
2019-02-21T08:50:49.388Z,11.90
2019-02-21T08:53:28.376Z,11.90
2019-02-21T08:55:58.135Z,11.70
2019-02-21T08:58:30.314Z,11.80
2019-02-21T09:01:00.029Z,11.90
2019-02-21T09:03:30.870Z,12.20
2019-02-21T09:06:00.615Z,12.60
2019-02-21T09:08:33.553Z,12.50
2019-02-21T09:11:03.949Z,11.90
2019-02-21T09:18:41.207Z,11.20
2019-02-21T09:21:10.777Z,11.10
2019-02-21T09:23:40.941Z,10.80
2019-02-21T09:26:10.580Z,10.70
2019-02-21T09:28:40.771Z,10.70
2019-02-21T09:31:10.685Z,10.70
2019-02-21T09:33:43.861Z,10.50
2019-02-21T09:36:13.523Z,10.80
2019-02-21T09:38:52.346Z,10.80
2019-02-21T09:41:21.921Z,10.90
2019-02-21T09:46:28.675Z,10.80
2019-02-21T09:48:58.258Z,10.90
2019-02-21T09:51:28.603Z,10.90
2019-02-21T09:54:03.244Z,10.90
2019-02-21T09:56:32.899Z,10.70
2019-02-21T09:59:02.507Z,10.70
2019-02-21T10:06:30.410Z,11.10
2019-02-21T10:09:09.889Z,11.20
2019-02-21T10:16:37.895Z,11.40
2019-02-21T10:19:13.617Z,11.20
2019-02-21T10:21:43.229Z,11.10
2019-02-21T10:24:13.886Z,10.80
2019-02-21T10:26:43.754Z,11.20
2019-02-21T10:29:24.340Z,11.30
2019-02-21T10:31:54.226Z,11.00
2019-02-21T10:34:28.262Z,11.40
2019-02-21T10:36:57.885Z,11.50
2019-02-21T10:41:59.193Z,11.70
2019-02-21T10:47:02.096Z,12.10
2019-02-21T10:52:13.130Z,11.90
2019-02-21T10:54:42.702Z,11.90
2019-02-21T10:57:12.370Z,11.80
2019-02-21T11:02:12.481Z,12.20
2019-02-21T11:07:16.834Z,12.10
2019-02-21T11:09:46.398Z,11.50
2019-02-21T11:14:47.824Z,12.40
2019-02-21T11:17:16.819Z,11.70
2019-02-21T11:19:47.300Z,11.60
2019-02-21T11:22:16.923Z,11.50
2019-02-21T11:24:47.698Z,11.50
2019-02-21T11:27:17.878Z,11.50
2019-02-21T11:29:50.874Z,11.60
2019-02-21T11:32:20.457Z,11.80
2019-02-21T11:35:06.255Z,11.90
2019-02-21T11:37:42.425Z,11.60
2019-02-21T11:42:32.110Z,12.30
2019-02-21T11:45:01.686Z,12.40
2019-02-21T11:47:31.817Z,12.40
2019-02-21T11:50:08.274Z,12.60
2019-02-21T11:57:38.532Z,12.50
2019-02-21T12:00:11.132Z,12.50
2019-02-21T12:02:41.049Z,12.50
2019-02-21T12:05:30.353Z,12.60
2019-02-21T12:07:53.395Z,12.50
2019-02-21T12:12:52.095Z,12.40
2019-02-21T12:20:29.309Z,11.60
2019-02-21T12:25:29.279Z,12.70
2019-02-21T12:27:59.203Z,12.90
2019-02-21T12:30:29.054Z,13.00
2019-02-21T12:33:01.067Z,13.70
2019-02-21T12:38:05.647Z,13.40
2019-02-21T12:40:35.277Z,13.30
2019-02-21T12:43:04.962Z,13.10
2019-02-21T12:45:37.083Z,13.10
2019-02-21T12:48:07.303Z,13.70
2019-02-21T12:50:49.706Z,13.00
2019-02-21T12:53:19.601Z,12.90
2019-02-21T12:58:18.152Z,13.10
2019-02-21T13:00:47.829Z,13.40
2019-02-21T13:03:17.401Z,13.20
2019-02-21T13:05:47.143Z,13.30
2019-02-21T13:10:46.973Z,14.20
2019-02-21T13:15:50.892Z,13.50
2019-02-21T13:18:20.950Z,13.30
2019-02-21T13:20:53.122Z,13.20
2019-02-21T13:23:22.797Z,13.00
2019-02-21T13:26:01.313Z,12.80
2019-02-21T13:28:30.869Z,12.70
2019-02-21T13:31:06.176Z,12.60
2019-02-21T13:33:36.204Z,12.50
2019-02-21T13:36:06.822Z,11.70
2019-02-21T13:38:36.734Z,12.60
2019-02-21T13:46:10.530Z,12.40
2019-02-21T13:48:40.188Z,12.40
2019-02-21T13:51:14.694Z,12.60
2019-02-21T13:53:44.349Z,13.40
2019-02-21T13:56:15.634Z,12.60
2019-02-21T14:01:18.208Z,12.80
2019-02-21T14:03:48.282Z,12.80
2019-02-21T14:06:21.266Z,12.80
2019-02-21T14:08:51.013Z,12.80
2019-02-21T14:11:25.340Z,12.90
2019-02-21T14:13:55.098Z,12.90
2019-02-21T14:18:56.849Z,13.00
2019-02-21T14:21:30.340Z,13.00
2019-02-21T14:24:01.029Z,12.90
2019-02-21T14:26:32.947Z,12.90
2019-02-21T14:29:02.617Z,12.90
2019-02-21T14:31:33.775Z,12.80
2019-02-21T14:34:03.724Z,12.80
2019-02-21T14:36:43.613Z,13.40
2019-02-21T14:39:14.006Z,12.70
2019-02-21T14:41:44.002Z,12.70
2019-02-21T14:46:43.484Z,10.40
2019-02-21T14:49:13.157Z,12.60
2019-02-21T14:51:50.652Z,12.60
2019-02-21T14:54:21.792Z,12.70
2019-02-21T14:56:51.510Z,12.20
2019-02-21T15:01:52.989Z,12.30
2019-02-21T15:04:22.565Z,12.30
2019-02-21T15:06:59.510Z,12.30
2019-02-21T15:09:29.100Z,12.20
2019-02-21T15:17:03.882Z,12.30
2019-02-21T15:19:36.908Z,12.30
2019-02-21T15:22:10.515Z,13.10
2019-02-21T15:27:09.825Z,12.30
2019-02-21T15:34:42.209Z,12.40
2019-02-21T15:37:22.508Z,12.40
2019-02-21T15:39:53.373Z,10.90
2019-02-21T15:42:52.437Z,12.50
2019-02-21T15:45:23.574Z,12.50
2019-02-21T15:47:54.551Z,12.50
2019-02-21T15:55:40.058Z,11.90
2019-02-21T15:58:10.142Z,12.50
2019-02-21T16:00:39.851Z,12.50
2019-02-21T16:05:38.536Z,12.40
2019-02-21T16:08:08.132Z,12.30
2019-02-21T16:10:43.420Z,12.30
2019-02-21T16:15:52.525Z,12.10
2019-02-21T16:20:52.942Z,12.10
2019-02-21T16:23:22.876Z,12.10
2019-02-21T16:25:52.619Z,12.00
2019-02-21T16:28:22.329Z,11.90
2019-02-21T16:30:59.164Z,11.90
2019-02-21T16:38:28.770Z,11.80
2019-02-21T16:40:58.775Z,11.80
2019-02-21T16:43:28.664Z,10.80
2019-02-21T16:48:30.026Z,11.80
2019-02-21T16:51:09.591Z,11.70
2019-02-21T16:58:38.400Z,11.60
2019-02-21T17:03:36.915Z,12.40
2019-02-21T17:08:36.151Z,11.40
2019-02-21T17:11:07.012Z,11.30
2019-02-21T17:13:36.690Z,11.30
2019-02-21T17:16:09.858Z,11.30
2019-02-21T17:18:39.562Z,11.20
2019-02-21T17:21:20.994Z,11.20
2019-02-21T17:26:19.726Z,10.90
2019-02-21T17:28:50.905Z,10.90
2019-02-21T17:31:20.511Z,10.80
2019-02-21T17:33:51.479Z,10.70
2019-02-21T17:36:21.486Z,10.70
2019-02-21T17:38:51.066Z,10.70
2019-02-21T17:46:28.186Z,10.40
2019-02-21T17:51:29.032Z,10.30
2019-02-21T17:53:59.666Z,10.30
2019-02-21T17:56:29.408Z,10.30
2019-02-21T18:04:02.918Z,10.30
2019-02-21T18:09:08.014Z,10.30
2019-02-21T18:11:40.963Z,10.30
2019-02-21T18:14:10.615Z,10.30
2019-02-21T18:16:40.384Z,10.20
2019-02-21T18:19:12.853Z,10.00
2019-02-21T18:26:48.454Z,9.90
2019-02-21T18:29:18.415Z,9.90
2019-02-21T18:31:52.947Z,9.90
2019-02-21T18:34:23.438Z,10.00
2019-02-21T18:36:53.823Z,9.80
2019-02-21T18:41:59.470Z,9.60
2019-02-21T18:44:29.479Z,9.90
2019-02-21T18:47:00.786Z,10.00
2019-02-21T18:49:34.057Z,10.00
2019-02-21T18:52:06.799Z,9.90
2019-02-21T18:54:36.454Z,9.90
2019-02-21T18:57:07.733Z,10.30
2019-02-21T18:59:37.578Z,9.90
2019-02-21T19:04:37.072Z,9.90
2019-02-21T19:07:13.856Z,9.90
2019-02-21T19:09:43.801Z,9.80
2019-02-21T19:12:13.458Z,10.90
2019-02-21T19:14:43.089Z,9.80
2019-02-21T19:17:17.593Z,9.80
2019-02-21T19:19:47.228Z,9.80
2019-02-21T19:24:47.112Z,9.90
2019-02-21T19:27:25.058Z,9.80
2019-02-21T19:29:54.923Z,10.40
2019-02-21T19:32:24.767Z,9.50
2019-02-21T19:34:54.698Z,9.80
2019-02-21T19:37:27.242Z,9.80
2019-02-21T19:39:56.802Z,9.80
2019-02-21T19:42:28.161Z,9.80
2019-02-21T19:44:59.232Z,9.70
2019-02-21T19:47:39.290Z,9.80
2019-02-21T19:50:09.909Z,9.80
2019-02-21T19:52:39.488Z,9.80
2019-02-21T19:55:09.272Z,9.80
2019-02-21T19:57:40.008Z,9.80
2019-02-21T20:00:12.275Z,9.80
2019-02-21T20:02:41.974Z,9.80
2019-02-21T20:05:12.230Z,9.90
2019-02-21T20:12:46.148Z,9.90
2019-02-21T20:15:17.493Z,9.90
2019-02-21T20:17:59.283Z,10.00
2019-02-21T20:20:29.378Z,11.00
2019-02-21T20:22:59.054Z,10.00
2019-02-21T20:25:28.736Z,10.00
2019-02-21T20:27:59.596Z,10.00
2019-02-21T20:30:29.400Z,10.00
2019-02-21T20:40:30.623Z,10.00
2019-02-21T20:43:04.996Z,9.80
2019-02-21T20:45:35.985Z,10.10
2019-02-21T20:48:09.480Z,10.10
2019-02-21T20:50:39.151Z,10.20
2019-02-21T20:53:12.078Z,10.20
2019-02-21T20:55:43.671Z,10.20
2019-02-21T21:00:42.806Z,10.20
2019-02-21T21:03:20.200Z,10.30
2019-02-21T21:05:52.006Z,10.30
2019-02-21T21:08:21.884Z,10.30
2019-02-21T21:10:51.486Z,10.30
2019-02-21T21:15:50.539Z,10.30
2019-02-21T21:18:25.271Z,10.30
2019-02-21T21:20:54.919Z,10.30
2019-02-21T21:23:29.033Z,10.20
2019-02-21T21:26:00.612Z,10.20
2019-02-21T21:28:31.122Z,10.20
2019-02-21T21:31:01.161Z,10.20
2019-02-21T21:33:33.806Z,10.10
2019-02-21T21:36:03.786Z,10.20
2019-02-21T21:38:39.100Z,10.20
2019-02-21T21:41:08.653Z,10.20
2019-02-21T21:43:38.596Z,10.20
2019-02-21T21:46:08.128Z,9.90
2019-02-21T21:48:40.889Z,9.60
2019-02-21T21:51:10.578Z,10.20
2019-02-21T21:53:42.382Z,10.20
2019-02-21T21:56:12.084Z,10.10
2019-02-21T21:58:46.446Z,10.10
2019-02-21T22:01:16.011Z,10.10
2019-02-21T22:03:48.602Z,10.10
2019-02-21T22:06:20.275Z,10.10
2019-02-21T22:08:52.218Z,10.20
2019-02-21T22:11:21.765Z,10.10
2019-02-21T22:16:27.455Z,10.20
2019-02-21T22:21:26.039Z,10.20
2019-02-21T22:24:01.987Z,10.20
2019-02-21T22:26:31.859Z,10.20
2019-02-21T22:29:04.377Z,10.20
2019-02-21T22:31:34.335Z,10.20
2019-02-21T22:36:36.780Z,10.20
2019-02-21T22:39:16.225Z,10.20
2019-02-21T22:41:43.485Z,10.20
2019-02-21T22:49:17.036Z,10.10
2019-02-21T22:54:19.718Z,10.10
2019-02-21T22:56:49.304Z,10.30
2019-02-21T22:59:21.756Z,10.00
2019-02-21T23:01:52.537Z,10.10
2019-02-21T23:09:40.180Z,10.10
2019-02-21T23:14:40.157Z,10.10
2019-02-21T23:17:09.851Z,10.10
2019-02-21T23:19:39.449Z,10.10
2019-02-21T23:22:09.056Z,10.10
2019-02-21T23:24:38.974Z,10.00
2019-02-21T23:29:37.577Z,10.70
2019-02-21T23:32:07.469Z,9.90
2019-02-21T23:34:43.903Z,9.90
2019-02-21T23:37:13.614Z,9.90
2019-02-21T23:42:12.426Z,9.90
2019-02-21T23:47:16.364Z,9.90
2019-02-21T23:49:49.041Z,9.90
2019-02-21T23:54:53.528Z,9.90
2019-02-21T23:57:23.110Z,9.90
2019-02-21T23:59:55.242Z,9.80
